Time;durP1;ratioP1;P1;durP2;ratioP2;P2;SDS_P1;SDS_P2;PMS_P1;PMS_P2;Temp;Humidity;BMP_temperature;BMP_pressure;BME280_temperature;BME280_humidity;BME280_pressure;Samples;Min_cycle;Max_cycle;Signal;HPM_P1;HPM_P2
2022/05/10 00:00:12;;;;;;;7.50;6.35;;;14.90;99.90;;;;;;6186893;23;20001;-85
2022/05/10 00:02:39;;;;;;;7.18;6.07;;;14.90;99.90;;;;;;6185320;23;20312;-87
2022/05/10 00:05:06;;;;;;;9.40;6.35;;;14.90;99.90;;;;;;6185257;23;20328;-87
2022/05/10 00:07:35;;;;;;;6.05;5.45;;;14.80;99.90;;;;;;6184983;23;20394;-86
2022/05/10 00:10:03;;;;;;;8.35;5.95;;;14.90;99.90;;;;;;6184888;23;20009;-84
2022/05/10 00:12:29;;;;;;;11.00;6.35;;;14.90;99.90;;;;;;6185111;23;20421;-85
2022/05/10 00:14:55;;;;;;;7.65;6.25;;;14.80;99.90;;;;;;6208699;23;20100;-85
2022/05/10 00:17:34;;;;;;;8.65;6.32;;;14.80;99.90;;;;;;6192804;23;20001;-85
2022/05/10 00:19:59;;;;;;;8.98;6.13;;;14.80;99.90;;;;;;6188147;23;20008;-83
2022/05/10 00:22:25;;;;;;;7.88;6.35;;;14.70;99.90;;;;;;6212984;23;20009;-85
2022/05/10 00:24:51;;;;;;;7.18;6.03;;;14.70;99.90;;;;;;6189972;23;19997;-85
2022/05/10 00:27:17;;;;;;;6.75;6.05;;;14.60;99.90;;;;;;6186918;23;20088;-85
2022/05/10 00:29:43;;;;;;;7.00;5.53;;;14.70;99.90;;;;;;6185525;23;20005;-85
2022/05/10 00:32:10;;;;;;;8.48;6.22;;;14.60;99.90;;;;;;6209836;23;20160;-86
2022/05/10 00:34:35;;;;;;;8.65;6.30;;;14.60;99.90;;;;;;6209639;23;20016;-87
2022/05/10 00:37:02;;;;;;;7.55;6.22;;;14.50;99.90;;;;;;6209720;23;20100;-86
2022/05/10 00:39:28;;;;;;;7.85;6.25;;;14.50;99.90;;;;;;6184355;23;20344;-86
2022/05/10 00:42:03;;;;;;;10.57;6.22;;;14.50;99.90;;;;;;6210082;23;20080;-86
2022/05/10 00:44:37;;;;;;;9.07;6.18;;;14.40;99.90;;;;;;6186396;23;20005;-85
2022/05/10 00:47:23;;;;;;;10.02;6.50;;;14.50;99.90;;;;;;6209499;23;20444;-85
2022/05/10 00:49:58;;;;;;;11.85;7.10;;;14.40;99.90;;;;;;6192631;23;20005;-86
2022/05/10 00:52:42;;;;;;;8.15;6.35;;;14.40;99.90;;;;;;6209617;23;20009;-85
2022/05/10 00:55:15;;;;;;;8.35;6.30;;;14.40;99.90;;;;;;6186599;23;20016;-86
2022/05/10 00:57:49;;;;;;;8.70;6.07;;;14.50;99.90;;;;;;6192184;23;20005;-85
2022/05/10 01:00:24;;;;;;;10.20;6.40;;;14.40;99.90;;;;;;6214231;23;20005;-86
2022/05/10 01:03:03;;;;;;;8.65;6.70;;;14.40;99.90;;;;;;6186492;23;20043;-86
2022/05/10 01:06:02;;;;;;;8.25;6.40;;;14.30;99.90;;;;;;6186818;23;20005;-85
2022/05/10 01:08:41;;;;;;;9.32;6.40;;;14.30;99.90;;;;;;6195750;23;20021;-86
2022/05/10 01:11:34;;;;;;;10.82;6.25;;;14.30;99.90;;;;;;6194459;23;20343;-86
2022/05/10 01:14:10;;;;;;;11.95;6.90;;;14.30;99.90;;;;;;6190467;23;20290;-85
2022/05/10 01:16:35;;;;;;;9.05;6.50;;;14.30;99.90;;;;;;6192746;23;20013;-85
2022/05/10 01:19:01;;;;;;;7.70;6.50;;;14.30;99.90;;;;;;6193914;23;20060;-87
2022/05/10 01:21:45;;;;;;;11.52;6.97;;;14.20;99.90;;;;;;6217323;23;20001;-86
2022/05/10 01:24:24;;;;;;;9.25;7.22;;;14.10;99.90;;;;;;6194768;23;20004;-86
2022/05/10 01:27:20;;;;;;;7.68;6.53;;;14.20;99.90;;;;;;6218469;23;20016;-86
2022/05/10 01:30:08;;;;;;;8.95;6.25;;;14.20;99.90;;;;;;6193799;23;20073;-86
2022/05/10 01:33:31;;;;;;;9.48;6.22;;;14.20;99.90;;;;;;6217145;23;20005;-86
2022/05/10 01:36:09;;;;;;;11.18;6.30;;;14.10;99.90;;;;;;6175206;23;20057;-86
2022/05/10 01:38:41;;;;;;;11.05;6.40;;;14.10;99.90;;;;;;6219089;23;20019;-86
2022/05/10 01:41:31;;;;;;;11.10;6.95;;;14.10;99.90;;;;;;6194352;23;20044;-86
2022/05/10 01:44:05;;;;;;;9.50;6.07;;;14.10;99.90;;;;;;6219011;23;20092;-86
2022/05/10 01:46:33;;;;;;;8.70;6.90;;;14.10;99.90;;;;;;6218719;23;20031;-86
2022/05/10 01:49:19;;;;;;;8.65;6.47;;;14.10;99.90;;;;;;6218295;23;20001;-86
2022/05/10 01:52:05;;;;;;;7.20;6.43;;;14.00;99.90;;;;;;6194266;23;20009;-86
2022/05/10 01:54:39;;;;;;;18.45;6.63;;;13.90;99.90;;;;;;6195058;23;20005;-85
2022/05/10 01:57:12;;;;;;;12.55;6.50;;;13.90;99.90;;;;;;6194348;23;20009;-86
2022/05/10 01:59:43;;;;;;;6.97;6.25;;;13.90;99.90;;;;;;6195536;23;20343;-85
2022/05/10 02:02:14;;;;;;;8.75;6.70;;;13.90;99.90;;;;;;6194432;23;20004;-86
2022/05/10 02:04:42;;;;;;;7.05;6.35;;;13.90;99.90;;;;;;6218533;23;20072;-86
2022/05/10 02:07:14;;;;;;;8.43;7.22;;;13.90;99.90;;;;;;6195379;23;20100;-86
2022/05/10 02:09:45;;;;;;;9.93;6.55;;;13.90;99.90;;;;;;6194861;23;20001;-87
2022/05/10 02:12:29;;;;;;;11.75;6.85;;;13.80;99.90;;;;;;6219348;23;20040;-86
2022/05/10 02:14:58;;;;;;;8.30;6.63;;;13.80;99.90;;;;;;6224030;23;20024;-85
2022/05/10 02:17:42;;;;;;;8.98;7.30;;;13.70;99.90;;;;;;6217489;23;20009;-86
2022/05/10 02:20:21;;;;;;;7.95;6.95;;;13.70;99.90;;;;;;6217448;23;20024;-86
2022/05/10 02:22:59;;;;;;;7.28;6.43;;;13.60;99.90;;;;;;6217615;23;20005;-86
2022/05/10 02:25:37;;;;;;;8.77;6.63;;;13.60;99.90;;;;;;6194065;23;20006;-87
2022/05/10 02:28:21;;;;;;;7.97;6.95;;;13.60;99.90;;;;;;6194569;23;20064;-86
2022/05/10 02:30:47;;;;;;;8.88;6.93;;;13.50;99.90;;;;;;6173922;23;20024;-86
2022/05/10 02:33:15;;;;;;;11.05;6.30;;;13.40;99.90;;;;;;6218089;23;20048;-85
2022/05/10 02:35:50;;;;;;;8.15;6.82;;;13.40;99.90;;;;;;6193573;23;20104;-86
2022/05/10 02:38:19;;;;;;;9.68;7.45;;;13.40;99.90;;;;;;6193728;23;20086;-85
2022/05/10 02:40:46;;;;;;;8.45;7.03;;;13.40;99.90;;;;;;6217114;23;20063;-86
2022/05/10 02:43:21;;;;;;;8.75;7.22;;;13.40;99.90;;;;;;6217718;23;20007;-85
2022/05/10 02:45:46;;;;;;;11.52;7.20;;;13.40;99.90;;;;;;6193575;23;20001;-86
2022/05/10 02:48:22;;;;;;;9.52;7.43;;;13.40;99.90;;;;;;6194093;23;20012;-86
2022/05/10 02:50:48;;;;;;;8.20;7.40;;;13.40;99.90;;;;;;6193896;23;20002;-86
2022/05/10 02:53:14;;;;;;;9.48;6.88;;;13.40;99.90;;;;;;6217061;23;20005;-86
2022/05/10 02:56:01;;;;;;;10.27;6.45;;;13.30;99.90;;;;;;6217152;23;19992;-86
2022/05/10 02:58:32;;;;;;;10.35;6.80;;;13.30;99.90;;;;;;6193310;23;20006;-85
2022/05/10 03:01:14;;;;;;;10.75;6.65;;;13.30;99.90;;;;;;6216580;23;20005;-86
2022/05/10 03:03:40;;;;;;;8.77;6.82;;;13.30;99.90;;;;;;6217137;23;20092;-86
2022/05/10 03:06:06;;;;;;;8.45;7.30;;;13.30;99.90;;;;;;6194152;23;20024;-86
2022/05/10 03:08:32;;;;;;;8.80;6.40;;;13.40;99.90;;;;;;6215659;23;20024;-86
2022/05/10 03:10:58;;;;;;;8.38;6.88;;;13.40;99.90;;;;;;6219396;23;20012;-86
2022/05/10 03:13:24;;;;;;;11.55;7.45;;;13.40;99.90;;;;;;6194938;23;20005;-85
2022/05/10 03:15:50;;;;;;;9.13;6.93;;;13.30;99.90;;;;;;6190635;23;20057;-86
2022/05/10 03:18:17;;;;;;;8.80;6.90;;;13.30;99.90;;;;;;6192366;23;19992;-85
2022/05/10 03:20:43;;;;;;;11.25;7.18;;;13.30;99.90;;;;;;6192946;23;20005;-85
2022/05/10 03:23:09;;;;;;;10.27;7.07;;;13.30;99.90;;;;;;6186291;23;20029;-86
2022/05/10 03:25:35;;;;;;;10.60;6.75;;;13.20;99.90;;;;;;6209777;23;20055;-85
2022/05/10 03:28:01;;;;;;;11.85;6.68;;;13.20;99.90;;;;;;6209708;23;20344;-86
2022/05/10 03:30:28;;;;;;;13.50;7.15;;;13.20;99.90;;;;;;6210144;23;20016;-86
2022/05/10 03:32:53;;;;;;;12.80;7.50;;;13.10;99.90;;;;;;6186198;23;20367;-87
2022/05/10 03:35:20;;;;;;;11.25;7.35;;;13.10;99.90;;;;;;6209598;23;20012;-87
2022/05/10 03:37:46;;;;;;;8.70;7.25;;;13.00;99.90;;;;;;6184805;23;20017;-86
2022/05/10 03:40:12;;;;;;;10.32;7.70;;;13.10;99.90;;;;;;6186744;23;20660;-85
2022/05/10 03:42:52;;;;;;;10.50;6.72;;;13.10;99.90;;;;;;6185680;23;20002;-86
2022/05/10 03:45:20;;;;;;;9.70;7.15;;;13.10;99.90;;;;;;6185013;23;20001;-87
2022/05/10 03:47:47;;;;;;;9.27;7.00;;;13.20;99.90;;;;;;6186582;23;20001;-86
2022/05/10 03:50:14;;;;;;;9.48;6.88;;;13.20;99.90;;;;;;6210153;23;20005;-85
2022/05/10 03:52:41;;;;;;;8.90;7.10;;;13.20;99.90;;;;;;6184745;23;20084;-86
2022/05/10 03:55:09;;;;;;;11.18;7.30;;;13.10;99.90;;;;;;6210158;23;20032;-86
2022/05/10 03:57:35;;;;;;;8.95;6.80;;;13.10;99.90;;;;;;6186264;23;20023;-86
2022/05/10 04:00:03;;;;;;;10.55;7.78;;;13.10;99.90;;;;;;6186294;23;20451;-87
2022/05/10 04:02:29;;;;;;;8.68;7.07;;;13.10;99.90;;;;;;6210125;23;20001;-84
2022/05/10 04:04:55;;;;;;;9.10;7.22;;;13.10;99.90;;;;;;6190183;23;20008;-87
2022/05/10 04:07:20;;;;;;;16.27;7.68;;;13.10;99.90;;;;;;6185900;23;20515;-85
2022/05/10 04:09:46;;;;;;;10.07;7.15;;;13.10;99.90;;;;;;6185091;23;20005;-85
2022/05/10 04:12:11;;;;;;;8.98;6.75;;;13.10;99.90;;;;;;6208925;23;20422;-86
2022/05/10 04:14:37;;;;;;;10.65;6.82;;;13.20;99.90;;;;;;6208234;23;20009;-86
2022/05/10 04:17:03;;;;;;;10.02;7.13;;;13.20;99.90;;;;;;6207856;23;20005;-86
2022/05/10 04:19:29;;;;;;;9.60;7.30;;;13.20;99.90;;;;;;6208524;23;20016;-86
2022/05/10 04:21:54;;;;;;;10.75;7.93;;;13.10;99.90;;;;;;6186445;23;20024;-86
2022/05/10 04:24:20;;;;;;;9.85;7.82;;;13.10;99.90;;;;;;6188050;23;20454;-87
2022/05/10 04:26:47;;;;;;;9.10;7.28;;;13.20;99.90;;;;;;6185807;23;20048;-86
2022/05/10 04:29:12;;;;;;;12.70;8.30;;;13.10;99.90;;;;;;6186013;23;20005;-86
2022/05/10 04:31:38;;;;;;;10.82;8.38;;;13.10;99.90;;;;;;6208713;23;20439;-85
2022/05/10 04:34:04;;;;;;;12.25;8.45;;;13.10;99.90;;;;;;6208178;23;20005;-85
2022/05/10 04:36:29;;;;;;;8.65;7.20;;;13.10;99.90;;;;;;6185228;23;20327;-85
2022/05/10 04:38:55;;;;;;;9.30;7.30;;;13.20;99.90;;;;;;6186199;23;20060;-85
2022/05/10 04:41:35;;;;;;;10.38;7.07;;;13.30;99.90;;;;;;6186389;23;20023;-85
2022/05/10 04:44:07;;;;;;;12.30;7.93;;;13.30;99.90;;;;;;6186498;23;19998;-86
2022/05/10 04:46:36;;;;;;;10.80;7.10;;;13.40;99.90;;;;;;6185975;23;20001;-84
2022/05/10 04:49:04;;;;;;;10.82;7.25;;;13.40;99.90;;;;;;6186507;23;20435;-85
2022/05/10 04:51:30;;;;;;;7.70;6.88;;;13.40;99.90;;;;;;6185856;23;20012;-86
2022/05/10 04:53:56;;;;;;;8.05;7.15;;;13.40;99.90;;;;;;6186256;23;20507;-86
2022/05/10 04:56:22;;;;;;;8.32;7.40;;;13.50;99.90;;;;;;6207748;23;20009;-86
2022/05/10 04:58:48;;;;;;;9.40;8.02;;;13.50;99.90;;;;;;6207836;23;20028;-87
2022/05/10 05:01:16;;;;;;;10.02;8.35;;;13.60;99.90;;;;;;6184143;23;20450;-85
2022/05/10 05:03:47;;;;;;;9.10;7.53;;;13.70;99.90;;;;;;6185917;23;20001;-87
2022/05/10 05:06:16;;;;;;;8.88;6.97;;;13.80;99.90;;;;;;6206460;23;20088;-86
2022/05/10 05:08:42;;;;;;;14.00;7.47;;;13.80;99.90;;;;;;6183910;23;20466;-86
2022/05/10 05:11:08;;;;;;;11.05;8.20;;;13.80;99.90;;;;;;6183454;23;20009;-86
2022/05/10 05:13:34;;;;;;;9.77;7.47;;;13.90;99.90;;;;;;6208753;23;20008;-86
2022/05/10 05:15:59;;;;;;;11.98;8.25;;;14.00;99.90;;;;;;6185440;23;20005;-86
2022/05/10 05:18:25;;;;;;;9.82;7.90;;;14.00;99.90;;;;;;6184690;23;20316;-86
2022/05/10 05:20:51;;;;;;;9.43;8.20;;;14.10;99.90;;;;;;6185096;23;20005;-86
2022/05/10 05:23:22;;;;;;;13.00;8.25;;;14.10;99.90;;;;;;6208383;23;20379;-86
2022/05/10 05:25:48;;;;;;;11.55;7.75;;;14.20;99.90;;;;;;6209471;23;20005;-85
2022/05/10 05:28:15;;;;;;;11.55;8.13;;;14.30;99.90;;;;;;6187907;23;20005;-85
2022/05/10 05:30:43;;;;;;;12.95;7.90;;;14.40;99.90;;;;;;6190255;23;20012;-87
2022/05/10 05:33:09;;;;;;;9.45;8.27;;;14.40;99.90;;;;;;6210561;23;20096;-85
2022/05/10 05:35:35;;;;;;;14.18;8.18;;;14.40;99.90;;;;;;6211284;23;20005;-85
2022/05/10 05:38:01;;;;;;;11.13;7.32;;;14.50;99.90;;;;;;6184241;23;20009;-85
2022/05/10 05:40:27;;;;;;;8.98;7.65;;;14.50;99.90;;;;;;6208482;23;20359;-85
2022/05/10 05:42:54;;;;;;;8.23;7.35;;;14.60;99.90;;;;;;6186565;23;20001;-85
2022/05/10 05:45:22;;;;;;;12.40;8.02;;;14.60;99.90;;;;;;6185203;23;20005;-85
2022/05/10 05:47:49;;;;;;;12.07;7.65;;;14.60;99.90;;;;;;6184970;23;20005;-86
2022/05/10 05:50:17;;;;;;;10.43;7.78;;;14.70;99.90;;;;;;6185362;23;20011;-86
2022/05/10 05:52:43;;;;;;;12.80;7.68;;;14.70;99.90;;;;;;6186266;23;20069;-86
2022/05/10 05:55:09;;;;;;;12.10;7.40;;;14.70;99.90;;;;;;6209658;23;20013;-85
2022/05/10 05:57:36;;;;;;;9.88;6.55;;;14.80;99.90;;;;;;6185901;23;20009;-85
2022/05/10 06:00:06;;;;;;;8.38;7.05;;;14.80;99.90;;;;;;6186527;23;20470;-85
2022/05/10 06:02:32;;;;;;;10.00;7.05;;;14.90;99.90;;;;;;6186825;23;20025;-86
2022/05/10 06:04:58;;;;;;;10.13;7.80;;;14.90;99.90;;;;;;6187181;23;20004;-85
2022/05/10 06:07:23;;;;;;;9.13;8.10;;;15.00;99.90;;;;;;6185961;23;20012;-86
2022/05/10 06:09:49;;;;;;;10.35;7.70;;;14.90;99.90;;;;;;6211049;23;20439;-85
2022/05/10 06:12:17;;;;;;;8.63;7.13;;;15.00;99.90;;;;;;6208732;23;20032;-86
2022/05/10 06:14:43;;;;;;;8.88;7.68;;;15.00;99.90;;;;;;6186053;23;20029;-86
2022/05/10 06:17:10;;;;;;;12.10;7.75;;;15.00;99.90;;;;;;6209811;23;20387;-86
2022/05/10 06:19:38;;;;;;;9.15;7.65;;;15.10;99.90;;;;;;6184529;23;20096;-86
2022/05/10 06:22:04;;;;;;;9.20;7.18;;;15.10;99.90;;;;;;6188830;23;20008;-86
2022/05/10 06:24:30;;;;;;;10.60;7.90;;;15.20;99.90;;;;;;6189981;23;20005;-85
2022/05/10 06:26:55;;;;;;;9.57;8.23;;;15.30;99.90;;;;;;6189123;23;20012;-83
2022/05/10 06:29:21;;;;;;;9.02;7.32;;;15.30;99.90;;;;;;6188598;23;20339;-84
2022/05/10 06:31:48;;;;;;;11.27;8.07;;;15.40;99.90;;;;;;6189789;23;20060;-84
2022/05/10 06:34:14;;;;;;;12.40;7.72;;;15.50;99.90;;;;;;6190552;23;20024;-85
2022/05/10 06:36:41;;;;;;;8.98;7.18;;;15.50;99.90;;;;;;6189840;23;20423;-84
2022/05/10 06:39:08;;;;;;;8.98;7.82;;;15.60;99.90;;;;;;6190307;23;20001;-85
2022/05/10 06:41:34;;;;;;;10.65;7.22;;;15.70;99.90;;;;;;6191020;23;20394;-86
2022/05/10 06:44:00;;;;;;;10.95;7.88;;;15.70;99.90;;;;;;6190546;23;20005;-85
2022/05/10 06:46:27;;;;;;;10.45;6.47;;;15.80;99.90;;;;;;6213965;23;20005;-85
2022/05/10 06:48:53;;;;;;;8.30;7.45;;;15.90;99.90;;;;;;6211815;23;19997;-86
2022/05/10 06:51:24;;;;;;;7.88;7.07;;;16.00;99.90;;;;;;6184596;23;20064;-86
2022/05/10 06:53:50;;;;;;;15.35;7.85;;;16.10;99.90;;;;;;6184301;23;20017;-87
2022/05/10 06:56:16;;;;;;;9.10;7.55;;;16.30;99.90;;;;;;6185062;23;20015;-86
2022/05/10 06:58:41;;;;;;;12.68;7.55;;;16.30;99.90;;;;;;6183923;23;20386;-87
2022/05/10 07:01:11;;;;;;;12.20;6.68;;;16.50;99.90;;;;;;6210312;23;20013;-86
2022/05/10 07:03:39;;;;;;;7.53;6.28;;;16.70;99.90;;;;;;6210268;23;20083;-86
2022/05/10 07:06:10;;;;;;;9.15;6.30;;;16.80;99.90;;;;;;6185343;23;20011;-85
2022/05/10 07:08:36;;;;;;;12.98;6.85;;;16.90;99.90;;;;;;6187227;23;20017;-86
2022/05/10 07:11:02;;;;;;;9.82;5.88;;;17.10;99.90;;;;;;6209674;23;20350;-86
2022/05/10 07:13:31;;;;;;;10.07;6.18;;;17.30;99.90;;;;;;6185461;23;20427;-85
2022/05/10 07:15:57;;;;;;;8.88;6.47;;;17.40;99.90;;;;;;6184724;23;20028;-86
2022/05/10 07:18:22;;;;;;;7.60;5.30;;;17.50;99.90;;;;;;6184933;23;20001;-86
2022/05/10 07:20:50;;;;;;;8.02;5.97;;;17.60;99.90;;;;;;6185689;23;20100;-86
2022/05/10 07:23:21;;;;;;;12.82;5.93;;;17.90;99.90;;;;;;6209711;23;20063;-85
2022/05/10 07:25:55;;;;;;;9.02;6.25;;;17.90;99.90;;;;;;6187030;23;20075;-85
2022/05/10 07:28:29;;;;;;;8.73;5.93;;;18.10;99.90;;;;;;6210476;23;19997;-85
2022/05/10 07:30:55;;;;;;;10.52;5.88;;;18.20;99.90;;;;;;6209866;23;20005;-86
2022/05/10 07:33:21;;;;;;;9.55;6.13;;;18.40;99.90;;;;;;6186457;23;20076;-86
2022/05/10 07:38:31;;;;;;;9.43;6.15;;;18.60;99.50;;;;;;6212532;23;20031;-87
2022/05/10 07:40:57;;;;;;;10.80;6.30;;;18.80;98.00;;;;;;6202186;23;20017;-86
2022/05/10 07:43:23;;;;;;;11.65;5.85;;;19.00;97.90;;;;;;6187549;23;19997;-86
2022/05/10 07:45:54;;;;;;;8.88;5.50;;;19.10;97.30;;;;;;6209822;23;20458;-86
2022/05/10 07:48:22;;;;;;;6.55;5.35;;;19.20;96.40;;;;;;6186377;23;20057;-86
2022/05/10 07:50:53;;;;;;;9.85;5.38;;;19.30;95.90;;;;;;6186599;23;19997;-86
2022/05/10 07:53:36;;;;;;;8.90;5.55;;;19.40;91.50;;;;;;6210023;23;20080;-85
2022/05/10 07:56:07;;;;;;;5.38;4.88;;;19.50;90.40;;;;;;6187279;23;20001;-86
2022/05/10 07:58:33;;;;;;;6.20;4.57;;;19.60;87.50;;;;;;6163833;23;20001;-86
2022/05/10 08:00:59;;;;;;;9.98;5.10;;;19.70;86.30;;;;;;6192509;23;20031;-86
2022/05/10 08:03:26;;;;;;;7.05;5.22;;;19.60;83.10;;;;;;6189784;23;20072;-86
2022/05/10 08:05:55;;;;;;;8.05;5.30;;;19.70;85.00;;;;;;6213098;23;20048;-86
2022/05/10 08:08:22;;;;;;;5.60;4.97;;;19.80;83.50;;;;;;6189236;23;20069;-86
2022/05/10 08:10:49;;;;;;;5.72;4.00;;;19.90;83.80;;;;;;6190619;23;20008;-86
2022/05/10 08:13:18;;;;;;;5.90;4.75;;;20.00;79.40;;;;;;6211839;23;20039;-85
2022/05/10 08:15:45;;;;;;;6.93;4.90;;;20.00;80.20;;;;;;6187171;23;20067;-85
2022/05/10 08:18:11;;;;;;;5.95;4.90;;;20.20;81.40;;;;;;6210500;23;20031;-86
2022/05/10 08:20:37;;;;;;;9.63;4.78;;;20.40;79.10;;;;;;6186479;23;20035;-85
2022/05/10 08:23:04;;;;;;;7.53;5.32;;;20.40;78.00;;;;;;6208402;23;20001;-85
2022/05/10 08:25:29;;;;;;;8.57;5.38;;;20.30;77.70;;;;;;6185026;23;20060;-86
2022/05/10 08:27:55;;;;;;;7.57;5.13;;;20.30;79.00;;;;;;6183255;23;19997;-85
2022/05/10 08:30:21;;;;;;;7.13;4.63;;;20.50;78.70;;;;;;6185348;23;20083;-86
2022/05/10 08:32:46;;;;;;;8.77;5.32;;;20.60;79.00;;;;;;6185533;23;20001;-85
2022/05/10 08:35:12;;;;;;;8.23;5.57;;;20.70;77.30;;;;;;6207355;23;20079;-86
2022/05/10 08:37:38;;;;;;;6.55;5.15;;;20.80;77.90;;;;;;6183489;23;20001;-86
2022/05/10 08:40:22;;;;;;;6.07;4.45;;;21.00;77.10;;;;;;6206676;23;20412;-86
2022/05/10 08:42:50;;;;;;;6.43;4.82;;;21.00;75.50;;;;;;6219928;23;20088;-86
2022/05/10 08:45:18;;;;;;;6.03;4.88;;;20.90;77.00;;;;;;6191614;23;20382;-85
2022/05/10 08:47:45;;;;;;;6.55;4.85;;;21.10;75.90;;;;;;6185375;23;20347;-87
2022/05/10 08:50:17;;;;;;;9.10;5.05;;;21.30;74.70;;;;;;6185516;23;20067;-85
2022/05/10 08:52:48;;;;;;;10.13;4.40;;;21.40;73.30;;;;;;6209867;23;20012;-85
2022/05/10 08:55:21;;;;;;;6.38;4.68;;;21.50;72.90;;;;;;6185918;23;20034;-84
2022/05/10 08:58:00;;;;;;;5.75;4.85;;;21.50;72.20;;;;;;6218683;23;19993;-85
2022/05/10 09:00:48;;;;;;;6.45;4.20;;;21.50;72.80;;;;;;6208401;23;20005;-85
2022/05/10 09:03:41;;;;;;;4.65;4.15;;;21.60;72.70;;;;;;6209281;23;20011;-85
2022/05/10 09:06:22;;;;;;;5.68;4.15;;;21.80;72.50;;;;;;6225351;23;20009;-87
2022/05/10 09:09:17;;;;;;;6.20;5.00;;;22.00;71.30;;;;;;6188634;23;20001;-86
2022/05/10 09:12:08;;;;;;;6.93;4.82;;;22.00;70.70;;;;;;6192005;23;20008;-85
2022/05/10 09:14:49;;;;;;;5.10;4.57;;;22.30;71.00;;;;;;6185921;23;20005;-85
2022/05/10 09:17:17;;;;;;;7.80;4.78;;;22.50;70.60;;;;;;6184744;23;20001;-85
2022/05/10 09:19:43;;;;;;;8.75;5.63;;;22.30;69.10;;;;;;6186826;23;20005;-86
2022/05/10 09:22:41;;;;;;;5.63;4.93;;;22.40;68.80;;;;;;6187538;23;19997;-86
2022/05/10 09:25:35;;;;;;;8.57;5.00;;;22.40;68.70;;;;;;6186398;23;20272;-85
2022/05/10 09:28:22;;;;;;;8.02;5.07;;;22.50;69.60;;;;;;6209825;23;20009;-85
2022/05/10 09:36:28;;;;;;;6.70;5.53;;;23.10;66.00;;;;;;6185666;23;20016;-86
2022/05/10 09:39:01;;;;;;;5.45;4.93;;;22.90;66.00;;;;;;6186057;23;20005;-86
2022/05/10 09:41:41;;;;;;;7.10;5.40;;;22.50;67.50;;;;;;6186634;23;20084;-85
2022/05/10 09:44:27;;;;;;;8.18;5.13;;;22.50;68.90;;;;;;6185086;23;20067;-86
2022/05/10 09:47:09;;;;;;;5.40;4.85;;;22.70;68.10;;;;;;6182971;23;20080;-85
2022/05/10 09:49:37;;;;;;;5.15;4.45;;;22.80;65.20;;;;;;6208005;23;20455;-86
2022/05/10 09:52:05;;;;;;;6.35;4.50;;;22.70;65.80;;;;;;6207743;23;20469;-87
2022/05/10 09:54:37;;;;;;;9.63;5.35;;;23.00;65.40;;;;;;6183799;23;20001;-87
2022/05/10 09:57:03;;;;;;;8.30;4.32;;;23.40;64.90;;;;;;6184766;23;20001;-87
2022/05/10 09:59:38;;;;;;;6.72;4.47;;;23.80;61.50;;;;;;6184062;23;20004;-86
2022/05/10 10:02:05;;;;;;;4.88;4.38;;;23.80;62.60;;;;;;6208012;23;20005;-85
2022/05/10 10:04:37;;;;;;;6.30;5.60;;;23.60;63.50;;;;;;6184793;23;20012;-86
2022/05/10 10:07:16;;;;;;;4.97;4.25;;;23.40;64.20;;;;;;6186025;23;20009;-86
2022/05/10 10:09:48;;;;;;;7.05;4.43;;;23.30;61.00;;;;;;6184655;23;20076;-86
2022/05/10 10:12:30;;;;;;;13.77;4.40;;;23.40;60.90;;;;;;6184516;23;20031;-86
2022/05/10 10:14:56;;;;;;;8.40;5.10;;;23.40;63.30;;;;;;6185301;23;20393;-88
2022/05/10 10:17:26;;;;;;;5.53;4.32;;;23.50;62.90;;;;;;6185814;23;19997;-86
2022/05/10 10:20:05;;;;;;;6.00;5.15;;;23.60;62.80;;;;;;6184935;23;20005;-87
2022/05/10 10:22:41;;;;;;;4.53;4.05;;;23.50;63.90;;;;;;6186210;23;20012;-88
2022/05/10 10:25:34;;;;;;;6.63;4.50;;;23.70;61.70;;;;;;6185396;23;20001;-89
2022/05/10 10:28:35;;;;;;;5.88;4.70;;;23.60;62.20;;;;;;6211072;23;20466;-91
2022/05/10 10:31:10;;;;;;;7.47;4.73;;;24.10;62.30;;;;;;6185998;23;20096;-90
2022/05/10 10:33:54;;;;;;;3.90;3.35;;;24.00;60.00;;;;;;6212937;23;20020;-91
2022/05/10 10:36:31;;;;;;;5.72;4.28;;;24.20;57.20;;;;;;6212077;23;20000;-92
2022/05/10 10:39:23;;;;;;;5.07;4.53;;;24.00;57.90;;;;;;6186581;23;20001;-92
2022/05/10 10:42:14;;;;;;;7.65;4.20;;;23.90;58.80;;;;;;6191552;23;20017;-91
2022/05/10 10:44:47;;;;;;;6.68;4.38;;;23.90;60.70;;;;;;6188689;23;20009;-92
2022/05/10 10:47:24;;;;;;;5.32;4.80;;;24.00;57.50;;;;;;6184923;23;20005;-90
2022/05/10 10:50:10;;;;;;;4.63;3.08;;;23.70;56.60;;;;;;6191109;23;20092;-93
2022/05/10 10:52:35;;;;;;;5.93;3.30;;;23.70;54.70;;;;;;6188570;23;20432;-89
2022/05/10 10:55:04;;;;;;;10.93;3.40;;;23.90;52.80;;;;;;6207766;23;20012;-92
2022/05/10 10:57:57;;;;;;;6.40;4.65;;;24.20;52.00;;;;;;6185035;23;20447;-91
2022/05/10 11:00:37;;;;;;;8.10;4.35;;;24.30;55.00;;;;;;6185788;23;20440;-92
2022/05/10 11:03:14;;;;;;;7.28;3.65;;;24.50;55.80;;;;;;6210382;23;20071;-92
2022/05/10 11:05:59;;;;;;;4.10;3.70;;;25.00;53.30;;;;;;6210071;23;20016;-93
2022/05/10 11:09:06;;;;;;;5.35;3.63;;;24.90;52.70;;;;;;6209575;23;20059;-93
2022/05/10 11:11:57;;;;;;;9.63;3.90;;;24.30;53.90;;;;;;6153992;23;20084;-90
2022/05/10 11:14:56;;;;;;;9.40;3.47;;;24.00;55.50;;;;;;6184510;23;20005;-90
2022/05/10 11:17:30;;;;;;;10.38;3.50;;;24.20;50.60;;;;;;6184666;23;20013;-90
2022/05/10 11:20:01;;;;;;;7.13;3.58;;;24.60;52.50;;;;;;6208629;23;20012;-90
2022/05/10 11:22:30;;;;;;;5.15;2.97;;;24.60;52.50;;;;;;6185069;23;20005;-89
2022/05/10 11:25:30;;;;;;;4.90;2.90;;;24.40;48.30;;;;;;6184817;23;20040;-90
2022/05/10 11:28:24;;;;;;;5.72;3.10;;;24.20;48.90;;;;;;6197715;23;20087;-90
2022/05/10 11:31:05;;;;;;;5.40;3.25;;;24.40;48.60;;;;;;6208009;23;20009;-90
2022/05/10 11:33:59;;;;;;;5.53;3.85;;;24.60;51.10;;;;;;6184047;23;20009;-89
2022/05/10 11:36:40;;;;;;;6.30;3.55;;;24.30;52.50;;;;;;6184248;23;20335;-89
2022/05/10 11:39:52;;;;;;;9.32;3.47;;;24.40;51.60;;;;;;6207845;23;20031;-89
2022/05/10 11:42:34;;;;;;;;;;;24.70;51.40;;;;;;6156064;23;20009;-89
2022/05/10 11:45:09;;;;;;;7.47;3.55;;;24.70;48.50;;;;;;6182696;23;20329;-89
2022/05/10 11:48:08;;;;;;;7.00;3.80;;;24.10;50.20;;;;;;6207923;23;20340;-90
2022/05/10 11:54:16;;;;;;;6.30;3.25;;;24.40;48.30;;;;;;6184375;23;20067;-90
2022/05/10 11:56:44;;;;;;;6.82;3.30;;;24.40;49.20;;;;;;6207339;23;20005;-90
2022/05/10 11:59:32;;;;;;;4.18;3.08;;;24.80;49.70;;;;;;6210134;23;20493;-90
2022/05/10 12:01:59;;;;;;;4.07;3.33;;;25.10;48.40;;;;;;6182789;23;20009;-90
2022/05/10 12:04:34;;;;;;;5.32;2.95;;;24.80;48.20;;;;;;6185018;23;20059;-90
2022/05/10 12:07:18;;;;;;;5.45;3.78;;;24.70;47.70;;;;;;6185586;23;20075;-87
2022/05/10 12:10:07;;;;;;;4.13;3.25;;;24.60;49.30;;;;;;6209262;23;20055;-90
2022/05/10 12:12:32;;;;;;;6.82;3.30;;;24.50;47.60;;;;;;6184124;23;20007;-90
2022/05/10 12:21:21;;;;;;;5.57;3.42;;;24.60;48.90;;;;;;6185829;23;20402;-89
2022/05/10 12:24:02;;;;;;;6.28;3.50;;;24.80;47.80;;;;;;6185919;23;20001;-89
2022/05/10 12:26:43;;;;;;;5.65;3.38;;;24.80;49.60;;;;;;6185581;23;20013;-88
2022/05/10 12:29:36;;;;;;;3.55;3.17;;;24.60;48.50;;;;;;6186012;23;20029;-88
2022/05/10 12:32:01;;;;;;;4.35;2.78;;;24.80;49.50;;;;;;6208847;23;20466;-89
2022/05/10 12:34:54;;;;;;;5.78;3.58;;;25.20;47.80;;;;;;6209244;23;20004;-89
2022/05/10 12:37:29;;;;;;;4.85;3.20;;;25.40;47.90;;;;;;6186267;23;20009;-89
2022/05/10 12:40:08;;;;;;;4.10;2.92;;;25.40;47.50;;;;;;6209230;23;20474;-89
2022/05/10 12:43:11;;;;;;;3.60;2.70;;;25.30;47.20;;;;;;6185219;23;20005;-89
2022/05/10 12:46:04;;;;;;;6.93;3.00;;;25.10;45.70;;;;;;6185681;23;20001;-90
2022/05/10 12:49:08;;;;;;;2.75;2.40;;;25.10;45.80;;;;;;6185631;23;20004;-88
2022/05/10 12:52:13;;;;;;;4.43;2.50;;;25.10;44.80;;;;;;6208862;23;20076;-89
2022/05/10 12:54:42;;;;;;;4.68;2.30;;;24.90;44.90;;;;;;6209233;23;20059;-88
2022/05/10 12:57:32;;;;;;;3.28;2.70;;;24.80;44.80;;;;;;6208829;23;20113;-89
2022/05/10 13:00:07;;;;;;;4.55;2.80;;;24.70;45.00;;;;;;6186385;23;20013;-88
2022/05/10 13:02:35;;;;;;;6.22;2.60;;;24.70;43.80;;;;;;6209511;23;20005;-88
2022/05/10 13:05:06;;;;;;;2.83;2.40;;;24.80;44.10;;;;;;6184334;23;20024;-88
2022/05/10 13:08:09;;;;;;;2.70;2.25;;;25.10;44.50;;;;;;6185804;23;20009;-88
2022/05/10 13:10:35;;;;;;;3.70;2.70;;;25.20;43.60;;;;;;6199187;23;20016;-88
2022/05/10 13:13:07;;;;;;;5.32;2.67;;;25.00;43.70;;;;;;6209287;23;20012;-88
2022/05/10 13:15:41;;;;;;;3.03;2.50;;;24.90;44.70;;;;;;6209631;23;20009;-88
2022/05/10 13:18:12;;;;;;;3.95;2.67;;;25.20;45.10;;;;;;6209315;23;20377;-88
2022/05/10 13:20:45;;;;;;;3.35;2.78;;;25.60;43.40;;;;;;6209371;23;20450;-88
2022/05/10 13:23:11;;;;;;;6.43;2.88;;;25.80;43.70;;;;;;6209530;23;20061;-89
2022/05/10 13:25:39;;;;;;;4.72;2.45;;;25.90;44.40;;;;;;6208951;23;20084;-89
2022/05/10 13:28:16;;;;;;;4.72;2.30;;;25.80;43.30;;;;;;6185475;23;20335;-89
2022/05/10 13:30:55;;;;;;;4.65;3.28;;;25.70;42.60;;;;;;6208851;23;20446;-89
2022/05/10 13:33:30;;;;;;;3.67;2.70;;;25.70;43.30;;;;;;6184557;23;20339;-90